MST,Max TemperatureF,Mean TemperatureF,Min TemperatureF,Max Dew PointF,MeanDew PointF,Min DewpointF,Max Humidity, Mean Humidity, Min Humidity, Max Sea Level PressureIn, Mean Sea Level PressureIn, Min Sea Level PressureIn, Max VisibilityMiles, Mean VisibilityMiles, Min VisibilityMiles, Max Wind SpeedMPH, Mean Wind SpeedMPH, Max Gust SpeedMPH,PrecipitationIn, CloudCover, Events, WindDirDegrees
2010-11-1,62,48,35,37,33,28,93,62,30,30.27,30.19,30.07,10,10,10,15,6,18,0.00,0,,236
2010-11-2,66,54,41,39,34,30,76,52,30,30.26,30.19,30.15,10,10,10,26,10,37,0.00,0,,235
2010-11-3,55,45,35,30,26,21,81,52,28,30.54,30.48,30.38,10,10,10,28,13,37,0.00,0,,302
2010-11-4,51,36,21,25,20,14,86,58,28,30.50,30.38,30.19,10,10,10,12,7,,0.00,0,,187
2010-11-5,66,46,26,30,22,18,69,46,26,30.09,29.94,29.82,10,10,10,17,10,,0.00,0,,196
2010-11-6,71,54,37,36,32,27,70,49,25,29.94,29.87,29.79,10,10,10,10,6,,0.00,0,,178
2010-11-7,69,52,35,39,34,28,81,56,31,29.82,29.78,29.72,10,10,10,9,4,,0.00,0,,193
2010-11-8,57,45,33,39,35,28,93,71,48,29.67,29.62,29.57,10,10,10,14,4,,0.00,0,,244
2010-11-9,39,36,33,34,32,30,93,85,81,29.78,29.74,29.66,10,10,3,21,17,28,0.06,7,,306
2010-11-10,37,34,32,30,28,25,87,80,70,29.93,29.84,29.78,10,10,10,21,15,26,0.06,7,,310
2010-11-11,44,32,21,25,21,16,93,68,36,30.28,30.21,30.07,10,10,10,17,11,24,0.00,1,,224
2010-11-12,44,32,21,27,21,16,86,60,39,30.29,30.26,30.24,10,10,10,14,8,20,0.00,1,,204
2010-11-13,37,32,26,27,24,19,93,77,56,30.27,30.19,30.08,10,10,10,18,10,23,0.00,7,,309
2010-11-14,42,30,19,34,28,18,93,79,61,29.92,29.78,29.66,10,10,8,20,10,28,0.01,6,,266
2010-11-15,39,32,26,34,30,23,93,87,81,29.80,29.73,29.64,10,10,9,21,10,22,0.00,6,,300
2010-11-16,35,30,24,32,27,21,100,88,80,29.94,29.66,29.52,10,10,5,20,8,24,0.00,5,,56
2010-11-17,24,20,15,21,16,12,93,84,79,30.33,30.26,30.13,10,8,2,16,10,17,0.00,8,,35
2010-11-18,44,35,26,32,27,25,93,78,57,30.03,29.74,29.52,10,10,10,32,10,38,0.00,5,,161
2010-11-19,15,10,6,7,2,0,79,65,49,30.13,30.07,29.95,10,10,10,20,13,30,0.00,1,,341
2010-11-20,10,10,10,9,7,5,92,85,79,30.12,30.05,29.91,10,4,2,18,14,20,0.00,8,,74
2010-11-21,10,4,-2,9,0,-9,92,80,66,29.91,29.88,29.85,10,9,1,15,8,18,0.00,2,,283
2010-11-22,3,2,0,0,-3,-6,100,85,72,29.99,29.93,29.90,10,7,1,12,7,,0.00,8,,40
2010-11-23,6,-2,-11,3,-5,-26,100,84,41,30.06,29.90,29.73,10,8,1,18,5,,0.00,4,,56
2010-11-24,5,-1,-7,0,-8,-15,85,73,65,29.83,29.79,29.73,10,7,0,28,19,33,0.00,5,,283
2010-11-25,23,9,-5,18,0,-11,92,70,58,29.83,29.78,29.75,10,10,4,23,16,31,0.00,5,,268
2010-11-26,35,28,21,25,19,14,80,69,56,29.96,29.91,29.82,10,10,10,25,15,30,0.00,0,,250
2010-11-27,32,24,15,21,17,12,100,78,64,29.87,29.78,29.64,10,10,10,12,6,,0.00,1,,184
2010-11-28,28,24,19,23,21,14,93,83,74,29.67,29.55,29.51,10,8,0,22,10,28,0.00,5,,15
2010-11-29,23,20,17,19,16,10,93,82,73,30.21,30.02,29.80,10,7,3,30,24,37,0.00,8,,333
2010-11-30,15,9,1,12,9,-2,100,87,67,30.18,30.15,30.10,10,8,1,13,5,,0.00,5,,308